Flight Track Log - Related Links

Times and Time Zones

All times are in EDT time to prevent confusion due to time zone crossing. See the UPS1337 flight status page for this flight to view local times or setup timezone preferences in your user account.

Time Position Orientation Groundspeed Altitude Reporting Facility
EDT Latitude Longitude Course Direction KTS MPH feet Rate Location/Type
Thu 09:45:05 PM 27.9000 -82.6833 318° Northwest 172 198 800  Level Tampa TRACON
Thu 09:47:15 PM 27.9614 -82.7461 318° Northwest 228 262 7,000 2,921 Climbing Miami Center
Thu 09:48:16 PM 28.0394 -82.7656 348° North 277 319 10,100 2,390 Climbing Miami Center
Thu 09:49:18 PM 28.1394 -82.7894 348° North 355 409 11,900 1,951 Climbing Miami Center
Thu 09:50:19 PM 28.2744 -82.8239 347° North 406 467 14,100 2,557 Climbing Miami Center
Thu 09:51:20 PM 28.3883 -82.8536 347° North 414 476 17,100 2,705 Climbing Miami Center
Thu 09:52:21 PM 28.5036 -82.8942 343° North 434 499 19,600 2,459 Climbing Miami Center
Thu 09:53:22 PM 28.6167 -82.9486 337° Northwest 447 514 22,100 2,311 Climbing Miami Center
Thu 09:54:23 PM 28.7350 -83.0064 337° Northwest 460 529 24,300 2,000 Climbing Miami Center
Thu 09:55:28 PM 28.8572 -83.0703 335° Northwest 452 520 26,300 1,824 Climbing Jacksonville Center
Thu 09:56:28 PM 28.9908 -83.1108 345° North 473 544 28,100 1,900 Climbing Jacksonville Center
Thu 09:57:28 PM 29.1200 -83.1542 344° North 486 559 30,100 1,900 Climbing Jacksonville Center
Thu 09:58:28 PM 29.2558 -83.1925 346° North 491 565 31,900 1,850 Climbing Jacksonville Center
Thu 09:59:28 PM 29.3892 -83.2286 347° North 491 565 33,800 1,500 Climbing Jacksonville Center
Thu 10:00:28 PM 29.5186 -83.2625 347° North 486 559 34,900 301 Climbing Jacksonville Center
Thu 10:06:46 PM 30.3941 -83.4852 347° North 500 575 36,000 150 Climbing FlightAware ADS-B (KONZ)
Thu 10:07:49 PM 30.5337 -83.5216 347° North 497 572 36,000  Level FlightAware ADS-B (KONZ)
Thu 10:08:27 PM 30.6172 -83.5436 347° North 493 567 36,000  Level FlightAware ADS-B (KONZ)
Thu 10:09:02 PM 30.6990 -83.5651 347° North 492 566 36,000  Level FlightAware ADS-B (KONZ)
Thu 10:09:43 PM 30.7831 -83.5873 347° North 493 567 36,000  Level FlightAware ADS-B (KONZ)
Thu 10:10:20 PM 30.8717 -83.6105 347° North 492 566 36,000  Level FlightAware ADS-B (KONZ)
Thu 10:10:52 PM 30.9427 -83.6292 347° North 492 566 36,000  Level FlightAware ADS-B (KONZ)
Thu 10:11:32 PM 31.0317 -83.6527 347° North 493 567 36,000  Level FlightAware ADS-B (KONZ)
Thu 10:12:06 PM 31.1034 -83.6717 347° North 494 568 36,000  Level FlightAware ADS-B (KONZ)
Thu 10:12:50 PM 31.2043 -83.6984 347° North 494 568 36,000  Level FlightAware ADS-B (KONZ)
Thu 10:13:34 PM 31.3042 -83.7250 347° North 493 567 36,000  Level FlightAware ADS-B (KONZ)
Thu 10:13:53 PM 31.3350 -83.7350 347° North 495 570 36,000  Level Atlanta Center
Thu 10:14:53 PM 31.4686 -83.7711 347° North 489 563 36,000  Level Atlanta Center
Thu 10:15:53 PM 31.5772 -83.8025 346° North 484 557 36,000  Level Atlanta Center
Thu 10:16:53 PM 31.7297 -83.8461 346° North 495 570 36,000  Level Atlanta Center
Thu 10:17:53 PM 31.8656 -83.8800 348° North 500 575 36,000  Level Atlanta Center
Thu 10:18:53 PM 31.9969 -83.9139 348° North 494 568 36,000  Level Atlanta Center
Thu 10:19:00 PM 31.9412 -83.8868 347° North  Level FlightAware Approximate
Thu 10:19:53 PM 32.1286 -83.9481 348° North 489 563 36,000  Level Atlanta Center
Thu 10:20:53 PM 32.2600 -83.9847 347° North 489 563 36,000  Level Atlanta Center
Thu 10:21:53 PM 32.3936 -84.0192 348° North 489 563 36,000  Level Atlanta Center
Thu 10:22:53 PM 32.5272 -84.0586 346° North 489 563 36,000  Level Atlanta Center
Thu 10:23:53 PM 32.6586 -84.0931 348° North 489 563 36,000  Level Atlanta Center
Thu 10:24:53 PM 32.7903 -84.1253 348° North 484 557 36,000  Level Atlanta Center
Thu 10:25:53 PM 32.9175 -84.1625 346° North 478 550 36,000  Level Atlanta Center
Thu 10:26:53 PM 33.0489 -84.2000 347° North 478 550 36,000  Level Atlanta Center
Thu 10:27:53 PM 33.1783 -84.2375 346° North 471 542 36,000  Level Atlanta Center
Thu 10:28:53 PM 33.3078 -84.2725 347° North 471 542 36,000  Level Atlanta Center
Thu 10:29:53 PM 33.4392 -84.3078 347° North 471 542 36,000  Level Atlanta Center
Thu 10:30:53 PM 33.5664 -84.3431 347° North 471 542 36,000  Level Atlanta Center
Thu 10:31:53 PM 33.7081 -84.3858 346° North 471 542 36,000  Level Atlanta Center
Thu 10:32:53 PM 33.8394 -84.4214 347° North 481 554 36,000  Level Atlanta Center
Thu 10:33:53 PM 33.9731 -84.4572 347° North 486 559 36,000  Level Atlanta Center
Thu 10:34:53 PM 34.1003 -84.4953 346° North 481 554 36,000  Level Atlanta Center
Thu 10:35:53 PM 34.2378 -84.5314 348° North 491 565 36,000  Level Atlanta Center
Thu 10:36:53 PM 34.3692 -84.5672 347° North 486 559 36,000  Level Atlanta Center
Thu 10:37:53 PM 34.4983 -84.6058 346° North 486 559 36,000 -400 Level Atlanta Center
Thu 10:41:53 PM 35.0047 -84.7539 346° North 476 548 34,000 -400 Descending Atlanta Center
Thu 10:42:53 PM 35.1381 -84.7906 347° North 476 548 34,000  Level Atlanta Center
Thu 10:43:15 PM 34.4465 -84.5904 346° North 477 549 34,000  Level FlightAware ADS-B (KMDQ)
Thu 10:43:53 PM 35.2714 -84.8300 346° North 476 548 34,000  Level Atlanta Center
Thu 10:44:53 PM 35.4025 -84.8694 346° North 481 554 34,000  Level Atlanta Center
Thu 10:45:53 PM 35.5336 -84.9089 346° North 481 554 34,000  Level Atlanta Center
Thu 10:46:53 PM 35.6628 -84.9461 347° North 481 554 34,000 -998 Level Atlanta Center
Thu 10:47:00 PM 34.8863 -84.7199 346° North  Level Estimated
Thu 10:52:42 PM 36.4474 -85.1336 349° North 464 534 27,200  Level FlightAware ADS-B
Thu 10:53:45 PM 36.5795 -85.1557 357° North 455 524 26,200 -952 Descending FlightAware ADS-B
Thu 10:54:48 PM 36.7086 -85.1428 10° North 456 525 25,200 -1,010 Descending FlightAware ADS-B
Thu 10:55:26 PM 36.7876 -85.1262 10° North 452 520 24,500 -900 Descending FlightAware ADS-B
Thu 10:56:48 PM 36.9424 -85.0951 North 396 456 23,400 -894 Descending FlightAware ADS-B
Thu 10:57:47 PM 37.0419 -85.0412 29° Northeast 398 458 22,400 -956 Descending FlightAware ADS-B
Thu 10:58:41 PM 37.1155 -84.9906 26° Northeast 388 447 21,600 -1,140 Descending FlightAware ADS-B
Thu 10:59:48 PM 37.2401 -84.9667 North 364 419 20,100 -2,031 Descending FlightAware ADS-B
Thu 11:00:48 PM 37.3401 -84.9632 North 347 399 17,300 -2,550 Descending FlightAware ADS-B
Thu 11:01:48 PM 37.4333 -84.9598 North 332 382 15,000 -2,269 Descending FlightAware ADS-B
Thu 11:02:47 PM 37.5244 -84.9566 North 319 367 12,800 -1,733 Descending FlightAware ADS-B
Thu 11:04:48 PM 37.6934 -85.0034 312° West 334 384 9,800 -994 Descending FlightAware ADS-B
Thu 11:05:48 PM 37.7549 -85.0901 312° West 335 386 9,800 -101 Level FlightAware ADS-B
Thu 11:06:47 PM 37.8039 -85.1755 292° West 284 327 9,600 -700 Descending FlightAware ADS-B
Thu 11:07:48 PM 37.8330 -85.2672 292° West 281 323 8,400 -1,339 Descending FlightAware ADS-B
Thu 11:08:48 PM 37.8626 -85.3585 292° West 281 323 6,900 -1,311 Descending FlightAware ADS-B
Thu 11:09:47 PM 37.8919 -85.4481 292° West 272 313 5,800 -1,050 Descending FlightAware ADS-B
Thu 11:10:48 PM 37.9200 -85.5363 292° West 262 302 4,800 -992 Descending FlightAware ADS-B
Thu 11:11:48 PM 37.9609 -85.6095 313° West 259 298 3,800 -900 Descending FlightAware ADS-B
Thu 11:12:48 PM 38.0093 -85.6739 314° West 240 276 3,000 -771 Descending FlightAware ADS-B
Thu 11:14:47 PM 38.0933 -85.7178 345° North 126 145 1,500 -712 Descending FlightAware ADS-B
Thu 11:15:45 PM 38.1233 -85.7278 345° North 127 146 900 -621 Descending FlightAware ADS-B
Thu 11:23:00 PM 38.1667 -85.7333 208° Southwest  Level FlightAware Approximate
Thu 11:24:00 PM 38.1741 -85.7365 208° Southwest  Level Estimated

Login

Don't have an account? Register now (free) for customized features, flight alerts, and more!